createdAt,value
2022-11-11T00:00:09.271Z,4.77
2022-11-11T00:01:30.513Z,6.15
2022-11-11T00:02:51.737Z,5.07
2022-11-11T00:04:12.379Z,7.78
2022-11-11T00:05:34.412Z,6.38
2022-11-11T00:06:55.397Z,8.65
2022-11-11T00:08:16.139Z,6.05
2022-11-11T00:09:37.266Z,7.55
2022-11-11T00:11:08.741Z,7.20
2022-11-11T00:12:29.954Z,5.40
2022-11-11T00:13:50.763Z,6.78
2022-11-11T00:15:11.915Z,5.70
2022-11-11T00:16:52.522Z,4.70
2022-11-11T00:18:32.495Z,5.22
2022-11-11T00:20:12.295Z,7.22
2022-11-11T00:21:51.694Z,4.32
2022-11-11T00:23:43.439Z,4.65
2022-11-11T00:25:07.458Z,5.18
2022-11-11T00:26:44.223Z,4.38
2022-11-11T00:28:05.250Z,4.50
2022-11-11T00:29:26.012Z,4.78
2022-11-11T00:30:46.783Z,6.65
2022-11-11T00:32:24.647Z,3.70
2022-11-11T00:33:45.498Z,6.57
2022-11-11T00:35:24.897Z,5.35
2022-11-11T00:36:45.844Z,4.70
2022-11-11T00:38:08.578Z,5.60
2022-11-11T00:39:29.114Z,3.97
2022-11-11T00:40:49.758Z,5.82
2022-11-11T00:42:10.497Z,7.55
2022-11-11T00:43:31.363Z,5.82
2022-11-11T00:44:52.042Z,4.80
2022-11-11T00:46:33.039Z,4.28
2022-11-11T00:48:12.771Z,6.50
2022-11-11T00:49:52.468Z,5.13
2022-11-11T00:51:13.453Z,4.93
2022-11-11T00:52:34.213Z,5.25
2022-11-11T00:53:55.304Z,6.70
2022-11-11T00:55:16.325Z,4.68
2022-11-11T00:56:37.715Z,3.83
2022-11-11T00:57:58.236Z,5.30
2022-11-11T00:59:18.869Z,6.32
2022-11-11T01:00:39.820Z,5.10
2022-11-11T01:02:00.588Z,3.85
2022-11-11T01:03:23.414Z,6.15
2022-11-11T01:04:44.146Z,8.63
2022-11-11T01:06:05.329Z,9.63
2022-11-11T01:07:26.365Z,8.93
2022-11-11T01:08:47.398Z,16.33
2022-11-11T01:10:08.518Z,14.32
2022-11-11T01:11:29.619Z,8.73
2022-11-11T01:13:11.759Z,7.45
2022-11-11T01:14:32.734Z,7.05
2022-11-11T01:16:00.113Z,10.07
2022-11-11T01:17:21.005Z,7.70
2022-11-11T01:18:42.056Z,9.57
2022-11-11T01:21:26.045Z,6.40
2022-11-11T01:22:47.382Z,6.47
2022-11-11T01:24:08.237Z,5.10
2022-11-11T01:25:29.277Z,9.13
2022-11-11T01:26:50.772Z,6.20
2022-11-11T01:28:11.908Z,8.23
2022-11-11T01:29:33.119Z,7.40
2022-11-11T01:30:54.053Z,8.33
2022-11-11T01:32:14.822Z,4.57
2022-11-11T01:33:35.929Z,5.93
2022-11-11T01:34:56.768Z,7.38
2022-11-11T01:36:20.353Z,4.85
2022-11-11T01:37:41.371Z,4.65
2022-11-11T01:39:03.163Z,5.13
2022-11-11T01:40:24.095Z,4.63
2022-11-11T01:41:45.524Z,6.10
2022-11-11T01:43:06.728Z,5.55
2022-11-11T01:44:46.633Z,5.65
2022-11-11T01:46:28.916Z,5.30
2022-11-11T01:50:02.817Z,5.00
2022-11-11T01:51:38.349Z,4.45
2022-11-11T01:52:59.129Z,4.07
2022-11-11T01:54:31.501Z,121.15
2022-11-11T01:55:53.209Z,203.77
2022-11-11T01:57:26.426Z,147.80
2022-11-11T01:58:47.880Z,97.10
2022-11-11T02:00:15.406Z,90.80
2022-11-11T02:01:37.322Z,67.32
2022-11-11T02:03:10.131Z,53.53
2022-11-11T02:04:53.624Z,46.20
2022-11-11T02:06:14.647Z,43.55
2022-11-11T02:07:36.912Z,35.95
2022-11-11T02:09:00.784Z,33.53
2022-11-11T02:10:25.258Z,34.05
2022-11-11T02:12:05.128Z,24.05
2022-11-11T02:13:44.750Z,43.33
2022-11-11T02:15:06.805Z,23.90
2022-11-11T02:16:28.071Z,16.45
2022-11-11T02:17:50.171Z,14.65
2022-11-11T02:19:11.452Z,14.23
2022-11-11T02:20:37.540Z,55.50
2022-11-11T02:22:02.165Z,85.88
2022-11-11T02:23:32.917Z,94.35
2022-11-11T02:24:55.621Z,66.30
2022-11-11T02:26:18.606Z,60.50
2022-11-11T02:27:46.603Z,57.58
2022-11-11T02:29:17.283Z,48.88
2022-11-11T02:30:38.475Z,38.28
2022-11-11T02:32:00.554Z,35.28
2022-11-11T02:33:21.757Z,39.70
2022-11-11T02:34:43.342Z,32.28
2022-11-11T02:36:06.058Z,30.50
2022-11-11T02:37:28.081Z,32.97
2022-11-11T02:38:50.176Z,29.27
2022-11-11T02:40:15.068Z,27.52
2022-11-11T02:41:54.967Z,28.48
2022-11-11T02:43:16.176Z,28.77
2022-11-11T02:46:04.238Z,27.10
2022-11-11T02:47:26.938Z,26.15
2022-11-11T02:48:47.812Z,26.38
2022-11-11T02:50:09.939Z,28.77
2022-11-11T02:51:30.827Z,22.33
2022-11-11T02:52:51.752Z,27.50
2022-11-11T02:54:13.002Z,25.95
2022-11-11T02:55:33.952Z,25.77
2022-11-11T02:57:07.404Z,24.33
2022-11-11T02:58:29.930Z,21.50
2022-11-11T02:59:51.054Z,23.10
2022-11-11T03:01:12.604Z,25.52
2022-11-11T03:02:33.858Z,23.75
2022-11-11T03:03:55.069Z,21.55
2022-11-11T03:05:16.077Z,19.83
2022-11-11T03:06:36.899Z,22.77
2022-11-11T03:07:58.332Z,18.80
2022-11-11T03:09:19.550Z,13.60
2022-11-11T03:10:40.949Z,17.83
2022-11-11T03:12:02.467Z,20.75
2022-11-11T03:13:23.762Z,22.15
2022-11-11T03:14:45.157Z,22.80
2022-11-11T03:16:06.839Z,21.13
2022-11-11T03:17:40.016Z,21.50
2022-11-11T03:19:02.050Z,21.20
2022-11-11T03:20:41.935Z,19.90
2022-11-11T03:23:44.064Z,18.65
2022-11-11T03:25:23.894Z,16.98
2022-11-11T03:26:44.871Z,17.95
2022-11-11T03:28:06.039Z,19.77
2022-11-11T03:29:26.994Z,17.58
2022-11-11T03:30:49.238Z,17.52
2022-11-11T03:32:10.430Z,18.73
2022-11-11T03:34:52.466Z,15.60
2022-11-11T03:36:13.155Z,17.38
2022-11-11T03:37:54.960Z,16.80
2022-11-11T03:39:15.879Z,14.75
2022-11-11T03:40:38.189Z,23.83
2022-11-11T03:41:59.129Z,16.25
2022-11-11T03:43:22.469Z,21.92
2022-11-11T03:44:44.062Z,41.72
2022-11-11T03:46:06.018Z,30.05
2022-11-11T03:47:27.003Z,25.73
2022-11-11T03:48:47.760Z,23.10
2022-11-11T03:50:08.763Z,22.08
2022-11-11T03:51:31.693Z,18.02
2022-11-11T03:52:52.835Z,18.67
2022-11-11T03:54:13.454Z,20.23
2022-11-11T03:55:34.429Z,20.10
2022-11-11T03:57:14.195Z,19.58
2022-11-11T03:58:35.132Z,17.55
2022-11-11T03:59:55.843Z,19.63
2022-11-11T04:01:36.463Z,18.42
2022-11-11T04:03:22.243Z,15.43
2022-11-11T04:05:02.365Z,14.98
2022-11-11T04:06:42.166Z,15.85
2022-11-11T04:08:21.711Z,15.68
2022-11-11T04:10:01.366Z,19.25
2022-11-11T04:11:28.617Z,18.35
2022-11-11T04:13:09.516Z,16.77
2022-11-11T04:14:49.138Z,14.45
2022-11-11T04:16:10.237Z,16.30
2022-11-11T04:17:31.042Z,25.10
2022-11-11T04:19:10.613Z,14.70
2022-11-11T04:20:50.364Z,11.90
2022-11-11T04:22:11.248Z,16.38
2022-11-11T04:23:32.032Z,11.43
2022-11-11T04:25:11.642Z,18.80
2022-11-11T04:26:32.648Z,17.35
2022-11-11T04:28:16.980Z,19.08
2022-11-11T04:29:38.330Z,19.52
2022-11-11T04:30:59.147Z,13.85
2022-11-11T04:34:00.105Z,11.88
2022-11-11T04:35:23.868Z,16.27
2022-11-11T04:36:44.758Z,14.57
2022-11-11T04:38:24.273Z,16.90
2022-11-11T04:40:03.902Z,13.60
2022-11-11T04:41:36.151Z,12.43
2022-11-11T04:43:05.833Z,14.85
2022-11-11T04:44:45.468Z,15.20
2022-11-11T04:46:07.056Z,14.30
2022-11-11T04:47:27.947Z,13.23
2022-11-11T04:48:48.749Z,16.45
2022-11-11T04:50:09.603Z,12.20
2022-11-11T04:51:50.323Z,14.07
2022-11-11T04:53:13.908Z,15.27
2022-11-11T04:54:54.806Z,10.98
2022-11-11T04:56:34.684Z,18.02
2022-11-11T04:57:55.728Z,16.10
2022-11-11T04:59:16.875Z,21.33
2022-11-11T05:00:37.753Z,12.80
2022-11-11T05:02:17.357Z,21.50
2022-11-11T05:03:38.410Z,12.05
2022-11-11T05:04:59.069Z,14.25
2022-11-11T05:06:38.587Z,14.97
2022-11-11T05:08:18.220Z,15.90
2022-11-11T05:09:39.177Z,13.43
2022-11-11T05:11:00.373Z,14.95
2022-11-11T05:12:21.213Z,15.68
2022-11-11T05:14:00.819Z,13.38
2022-11-11T05:15:40.537Z,15.82
2022-11-11T05:17:20.193Z,15.77
2022-11-11T05:18:59.853Z,18.58
2022-11-11T05:20:39.651Z,12.60
2022-11-11T05:22:21.094Z,10.38
2022-11-11T05:24:00.501Z,14.18
2022-11-11T05:25:29.408Z,5.82
2022-11-11T05:26:50.498Z,8.02
2022-11-11T05:28:11.353Z,14.45
2022-11-11T05:29:32.019Z,13.37
2022-11-11T05:30:52.763Z,10.53
2022-11-11T05:32:20.611Z,10.40
2022-11-11T05:33:41.665Z,9.70
2022-11-11T05:35:02.625Z,12.67
2022-11-11T05:36:23.821Z,15.77
2022-11-11T05:38:04.822Z,11.48
2022-11-11T05:39:25.502Z,13.00
2022-11-11T05:40:46.254Z,8.87
2022-11-11T05:42:07.154Z,11.15
2022-11-11T05:43:28.090Z,9.85
2022-11-11T05:44:49.288Z,11.37
2022-11-11T05:46:10.033Z,16.75
2022-11-11T05:47:30.685Z,15.43
2022-11-11T05:49:10.121Z,14.25
2022-11-11T05:50:31.298Z,12.95
2022-11-11T05:52:01.542Z,16.77
2022-11-11T05:53:24.509Z,13.52
2022-11-11T05:54:45.933Z,14.07
2022-11-11T05:56:06.955Z,17.20
2022-11-11T05:57:27.570Z,15.02
2022-11-11T05:58:50.744Z,13.38
2022-11-11T06:00:12.402Z,9.63
2022-11-11T06:01:34.381Z,9.25
2022-11-11T06:02:55.138Z,13.85
2022-11-11T06:04:18.407Z,13.88
2022-11-11T06:05:39.690Z,11.13
2022-11-11T06:07:00.363Z,11.27
2022-11-11T06:08:21.004Z,11.80
2022-11-11T06:09:41.738Z,10.90
2022-11-11T06:11:02.752Z,15.43
2022-11-11T06:12:23.445Z,10.37
2022-11-11T06:13:44.290Z,12.70
2022-11-11T06:15:05.362Z,19.48
2022-11-11T06:16:25.938Z,20.80
2022-11-11T06:17:46.556Z,14.13
2022-11-11T06:19:07.364Z,11.38
2022-11-11T06:20:28.365Z,13.52
2022-11-11T06:21:58.112Z,16.00
2022-11-11T06:23:19.029Z,32.75
2022-11-11T06:24:39.747Z,24.98
2022-11-11T06:26:12.724Z,14.02
2022-11-11T06:27:33.503Z,14.00
2022-11-11T06:28:57.565Z,14.60
2022-11-11T06:30:46.050Z,12.88
2022-11-11T06:31:59.580Z,17.95
2022-11-11T06:33:21.864Z,13.25
2022-11-11T06:34:43.287Z,17.13
2022-11-11T06:36:05.913Z,17.35
2022-11-11T06:37:27.025Z,14.60
2022-11-11T06:38:48.235Z,15.05
2022-11-11T06:40:10.114Z,12.90
2022-11-11T06:42:51.615Z,12.82
2022-11-11T06:44:12.332Z,12.98
2022-11-11T06:45:34.942Z,11.45
2022-11-11T06:46:55.841Z,9.00
2022-11-11T06:48:17.442Z,19.40
2022-11-11T06:49:38.838Z,11.95
2022-11-11T06:51:05.449Z,11.02
2022-11-11T06:52:26.512Z,10.02
2022-11-11T06:53:47.699Z,14.15
2022-11-11T06:55:08.658Z,15.13
2022-11-11T06:56:29.459Z,12.25
2022-11-11T06:57:50.420Z,11.85
2022-11-11T06:59:11.191Z,12.07
2022-11-11T07:00:32.447Z,10.90
2022-11-11T07:01:53.187Z,15.82
2022-11-11T07:03:15.990Z,15.30
2022-11-11T07:04:36.751Z,14.23
2022-11-11T07:06:00.370Z,15.40
2022-11-11T07:07:21.166Z,12.88
2022-11-11T07:08:45.030Z,14.27
2022-11-11T07:10:07.253Z,11.13
2022-11-11T07:11:28.063Z,12.43
2022-11-11T07:12:48.840Z,10.98
2022-11-11T07:14:09.673Z,11.85
2022-11-11T07:15:31.061Z,10.25
2022-11-11T07:16:51.913Z,12.98
2022-11-11T07:18:13.065Z,11.82
2022-11-11T07:19:33.882Z,13.23
2022-11-11T07:20:54.548Z,12.68
2022-11-11T07:22:15.534Z,9.20
2022-11-11T07:23:36.477Z,9.40
2022-11-11T07:24:57.810Z,13.23
2022-11-11T07:26:18.560Z,11.88
2022-11-11T07:27:40.709Z,9.00
2022-11-11T07:29:01.827Z,8.82
2022-11-11T07:30:22.557Z,10.20
2022-11-11T07:31:43.342Z,12.68
2022-11-11T07:33:04.157Z,14.07
2022-11-11T07:34:24.981Z,12.65
2022-11-11T07:35:45.623Z,10.40
2022-11-11T07:37:06.508Z,21.63
2022-11-11T07:38:27.589Z,12.27
2022-11-11T07:39:48.757Z,9.82
2022-11-11T07:41:09.814Z,11.93
2022-11-11T07:42:31.762Z,10.67
2022-11-11T07:43:53.008Z,13.73
2022-11-11T07:45:14.594Z,11.13
2022-11-11T07:46:35.562Z,11.05
2022-11-11T07:47:56.289Z,9.25
2022-11-11T07:49:17.055Z,11.40
2022-11-11T07:50:37.856Z,9.63
2022-11-11T07:51:58.570Z,14.63
2022-11-11T07:53:19.215Z,12.27
2022-11-11T07:54:40.211Z,9.43
2022-11-11T07:56:01.036Z,8.13
2022-11-11T07:57:22.103Z,9.50
2022-11-11T07:58:43.024Z,8.88
2022-11-11T08:00:05.235Z,7.93
2022-11-11T08:01:26.422Z,9.07
2022-11-11T08:02:49.269Z,12.00
2022-11-11T08:04:10.162Z,11.93
2022-11-11T08:05:30.846Z,16.42
2022-11-11T08:06:51.421Z,12.20
2022-11-11T08:08:12.142Z,13.87
2022-11-11T08:09:33.150Z,11.80
2022-11-11T08:10:55.228Z,14.90
2022-11-11T08:12:34.497Z,18.35
2022-11-11T08:13:55.381Z,9.43
2022-11-11T08:15:16.413Z,11.60
2022-11-11T08:16:37.191Z,9.95
2022-11-11T08:17:57.991Z,10.65
2022-11-11T08:19:18.500Z,10.80
2022-11-11T08:20:44.576Z,9.67
2022-11-11T08:22:06.588Z,18.23
2022-11-11T08:23:53.807Z,11.48
2022-11-11T08:25:15.022Z,10.80
2022-11-11T08:26:36.063Z,12.77
2022-11-11T08:28:01.497Z,12.98
2022-11-11T08:29:22.564Z,18.67
2022-11-11T08:30:43.684Z,26.63
2022-11-11T08:32:05.203Z,10.77
2022-11-11T08:33:33.426Z,17.10
2022-11-11T08:34:55.074Z,16.52
2022-11-11T08:36:20.521Z,21.25
2022-11-11T08:37:49.005Z,10.55
2022-11-11T08:39:10.207Z,21.25
2022-11-11T08:40:31.283Z,17.15
2022-11-11T08:41:51.964Z,15.38
2022-11-11T08:43:12.912Z,9.17
2022-11-11T08:44:33.652Z,12.48
2022-11-11T08:45:54.584Z,15.10
2022-11-11T08:47:15.605Z,25.40
2022-11-11T08:48:36.375Z,14.00
2022-11-11T08:49:57.168Z,9.80
2022-11-11T08:51:17.838Z,9.63
2022-11-11T08:52:39.321Z,12.30
2022-11-11T08:54:00.351Z,10.73
2022-11-11T08:55:21.232Z,5.78
2022-11-11T08:56:43.173Z,9.05
2022-11-11T08:58:06.870Z,6.68
2022-11-11T08:59:27.702Z,10.00
2022-11-11T09:00:48.836Z,22.98
2022-11-11T09:02:14.638Z,42.58
2022-11-11T09:03:35.368Z,15.80
2022-11-11T09:04:56.053Z,58.67
2022-11-11T09:06:17.095Z,22.63
2022-11-11T09:07:38.029Z,26.35
2022-11-11T09:08:58.711Z,111.53
2022-11-11T09:10:19.469Z,210.47
2022-11-11T09:11:40.352Z,230.88
2022-11-11T09:13:01.664Z,293.90
2022-11-11T09:14:22.740Z,309.15
2022-11-11T09:15:43.537Z,403.00
2022-11-11T09:17:04.571Z,452.45
2022-11-11T09:18:26.598Z,446.95
2022-11-11T09:19:47.325Z,445.30
2022-11-11T09:21:08.304Z,413.13
2022-11-11T09:22:29.444Z,418.58
2022-11-11T09:23:50.199Z,416.95
2022-11-11T09:25:11.203Z,432.17
2022-11-11T09:26:32.052Z,405.10
2022-11-11T09:27:57.605Z,398.10
2022-11-11T09:29:19.158Z,370.52
2022-11-11T09:30:40.187Z,374.10
2022-11-11T09:32:01.047Z,381.10
2022-11-11T09:33:22.016Z,350.40
2022-11-11T09:34:43.237Z,366.70
2022-11-11T09:36:04.295Z,345.70
2022-11-11T09:37:25.055Z,344.80
2022-11-11T09:38:45.732Z,214.27
2022-11-11T09:40:07.292Z,201.30
2022-11-11T09:42:06.703Z,188.18
2022-11-11T09:44:00.253Z,241.35
2022-11-11T09:45:35.885Z,258.45
2022-11-11T09:47:34.428Z,299.25
2022-11-11T09:49:03.751Z,260.15
2022-11-11T09:50:27.782Z,236.15
2022-11-11T09:51:55.102Z,239.55
2022-11-11T09:53:30.244Z,214.90
2022-11-11T09:54:56.789Z,265.25
2022-11-11T09:56:31.210Z,229.30
2022-11-11T09:58:06.951Z,219.80
2022-11-11T09:59:36.331Z,240.48
2022-11-11T10:01:16.475Z,238.05
2022-11-11T10:02:53.543Z,215.82
2022-11-11T10:04:23.404Z,229.82
2022-11-11T10:05:59.639Z,219.73
2022-11-11T10:07:37.053Z,236.30
2022-11-11T10:09:05.821Z,229.20
2022-11-11T10:10:38.789Z,210.68
2022-11-11T10:12:11.179Z,232.52
2022-11-11T10:13:37.165Z,195.77
2022-11-11T10:15:01.148Z,228.50
2022-11-11T10:16:44.033Z,209.32
2022-11-11T10:18:32.216Z,202.50
2022-11-11T10:20:08.620Z,211.57
2022-11-11T10:22:06.225Z,211.85
2022-11-11T10:23:36.900Z,197.55
2022-11-11T10:25:07.608Z,227.52
2022-11-11T10:26:48.164Z,193.10
2022-11-11T10:28:14.090Z,197.52
2022-11-11T10:29:44.246Z,196.00
2022-11-11T10:31:15.562Z,208.32
2022-11-11T10:32:37.063Z,204.15
2022-11-11T10:34:06.050Z,201.90
2022-11-11T10:35:29.416Z,181.73
2022-11-11T10:36:57.107Z,175.40
2022-11-11T10:38:34.758Z,186.05
2022-11-11T10:40:16.011Z,199.18
2022-11-11T10:41:44.153Z,190.82
2022-11-11T10:43:05.267Z,173.68
2022-11-11T10:44:28.922Z,174.10
2022-11-11T10:45:57.469Z,167.63
2022-11-11T10:47:43.925Z,192.00
2022-11-11T10:49:12.147Z,151.88
2022-11-11T10:50:50.149Z,172.98
2022-11-11T10:52:17.667Z,194.65
2022-11-11T10:54:01.269Z,177.85
2022-11-11T10:55:41.008Z,144.23
2022-11-11T10:57:04.908Z,166.95
2022-11-11T10:58:28.309Z,165.65
2022-11-11T10:59:55.634Z,156.70
2022-11-11T11:01:22.654Z,145.52
2022-11-11T11:03:07.751Z,165.43
2022-11-11T11:04:39.884Z,148.80
2022-11-11T11:06:14.545Z,161.80
2022-11-11T11:07:46.970Z,138.00
2022-11-11T11:10:45.586Z,151.65
2022-11-11T11:12:13.566Z,156.15
2022-11-11T11:13:52.983Z,157.32
2022-11-11T11:15:24.689Z,128.85
2022-11-11T11:18:17.833Z,150.32
2022-11-11T11:19:38.767Z,128.88
2022-11-11T11:21:07.742Z,165.55
2022-11-11T11:22:51.675Z,160.88
2022-11-11T11:24:29.009Z,147.20
2022-11-11T11:25:56.789Z,143.23
2022-11-11T11:27:26.818Z,132.20
2022-11-11T11:29:04.000Z,141.55
2022-11-11T11:30:26.247Z,128.95
2022-11-11T11:31:47.612Z,118.78
2022-11-11T11:33:10.080Z,97.78
2022-11-11T11:34:53.790Z,89.00
2022-11-11T11:36:17.542Z,106.57
2022-11-11T11:37:52.221Z,88.20
2022-11-11T11:39:13.376Z,66.10
2022-11-11T11:40:45.830Z,65.45
2022-11-11T11:42:07.395Z,78.95
2022-11-11T11:43:39.556Z,61.17
2022-11-11T11:45:21.954Z,66.53
2022-11-11T11:46:45.702Z,64.25
2022-11-11T11:50:16.758Z,45.25
2022-11-11T11:52:08.161Z,49.13
2022-11-11T11:53:56.922Z,48.55
2022-11-11T11:55:28.399Z,34.40
2022-11-11T11:57:00.553Z,45.97
2022-11-11T11:58:41.296Z,35.05
2022-11-11T12:00:23.096Z,47.15
2022-11-11T12:02:15.517Z,35.38
2022-11-11T12:05:38.312Z,31.75
2022-11-11T12:06:59.449Z,31.05
2022-11-11T12:08:48.546Z,27.45
2022-11-11T12:10:27.376Z,29.45
2022-11-11T12:12:04.307Z,26.88
2022-11-11T12:13:45.967Z,25.83
2022-11-11T12:15:27.723Z,23.00
2022-11-11T12:17:02.589Z,21.10
2022-11-11T12:18:59.114Z,27.77
2022-11-11T12:20:50.721Z,23.05
2022-11-11T12:22:29.686Z,26.38
2022-11-11T12:24:01.490Z,30.00
2022-11-11T12:27:16.786Z,27.50
2022-11-11T12:29:05.386Z,32.30
2022-11-11T12:30:29.212Z,24.58
2022-11-11T12:32:26.552Z,31.45
2022-11-11T12:34:08.781Z,30.10
2022-11-11T12:37:09.202Z,35.78
2022-11-11T12:38:51.604Z,24.25
2022-11-11T12:42:16.826Z,16.08
2022-11-11T12:44:05.614Z,13.40
2022-11-11T12:46:13.403Z,31.65
2022-11-11T12:47:39.892Z,25.45
2022-11-11T12:49:31.454Z,35.70
2022-11-11T12:51:29.831Z,36.07
2022-11-11T12:53:03.513Z,34.40
2022-11-11T12:55:01.141Z,26.13
2022-11-11T12:56:29.483Z,23.40
2022-11-11T12:58:24.006Z,20.90
2022-11-11T13:00:18.475Z,21.48
2022-11-11T13:01:56.507Z,22.33
2022-11-11T13:03:32.961Z,25.85
2022-11-11T13:05:20.878Z,21.08
2022-11-11T13:07:05.759Z,19.77
2022-11-11T13:08:53.713Z,14.70
2022-11-11T13:10:26.843Z,15.73
2022-11-11T13:12:05.392Z,18.25
2022-11-11T13:13:54.235Z,13.98
2022-11-11T13:15:23.621Z,12.60
2022-11-11T13:16:44.723Z,17.95
2022-11-11T13:18:14.146Z,15.73
2022-11-11T13:19:44.584Z,18.38
2022-11-11T13:21:11.526Z,15.93
2022-11-11T13:22:33.024Z,13.13
2022-11-11T13:23:53.913Z,14.15
2022-11-11T13:25:22.330Z,20.00
2022-11-11T13:26:54.006Z,18.98
2022-11-11T13:28:39.271Z,13.77
2022-11-11T13:30:24.754Z,13.32
2022-11-11T13:31:49.222Z,15.43
2022-11-11T13:33:19.414Z,19.42
2022-11-11T13:34:44.090Z,19.75
2022-11-11T13:36:08.860Z,12.23
2022-11-11T13:37:33.201Z,13.63
2022-11-11T13:39:00.122Z,19.35
2022-11-11T13:40:41.212Z,10.85
2022-11-11T13:42:03.097Z,14.05
2022-11-11T13:43:32.035Z,17.38
2022-11-11T13:44:56.746Z,11.95
2022-11-11T13:46:35.591Z,17.98
2022-11-11T13:47:57.323Z,16.42
2022-11-11T13:49:33.381Z,21.83
2022-11-11T13:51:31.185Z,20.17
2022-11-11T13:53:25.523Z,26.85
2022-11-11T13:54:54.405Z,21.13
2022-11-11T13:56:47.880Z,22.48
2022-11-11T13:58:45.043Z,22.50
2022-11-11T14:00:20.530Z,20.48
2022-11-11T14:01:42.909Z,23.08
2022-11-11T14:03:19.933Z,24.33
2022-11-11T14:05:02.944Z,26.38
2022-11-11T14:06:33.499Z,23.60
2022-11-11T14:07:57.433Z,16.25
2022-11-11T14:09:53.411Z,23.20
2022-11-11T14:11:26.385Z,22.35
2022-11-11T14:12:52.476Z,24.95
2022-11-11T14:14:32.062Z,31.95
2022-11-11T14:15:54.263Z,25.63
2022-11-11T14:17:17.607Z,24.65
2022-11-11T14:18:43.453Z,23.67
2022-11-11T14:20:42.462Z,24.30
2022-11-11T14:22:31.219Z,27.35
2022-11-11T14:23:55.318Z,23.30
2022-11-11T14:25:27.591Z,25.27
2022-11-11T14:26:58.361Z,27.40
2022-11-11T14:28:27.343Z,27.38
2022-11-11T14:29:52.468Z,32.58
2022-11-11T14:31:13.082Z,24.45
2022-11-11T14:33:05.599Z,25.40
2022-11-11T14:34:51.678Z,25.88
2022-11-11T14:36:19.442Z,22.33
2022-11-11T14:37:56.823Z,20.20
2022-11-11T14:39:47.640Z,26.73
2022-11-11T14:41:47.724Z,21.50
2022-11-11T14:43:38.147Z,18.05
2022-11-11T14:44:59.211Z,24.17
2022-11-11T14:46:19.911Z,19.70
2022-11-11T14:47:40.759Z,26.33
2022-11-11T14:49:03.064Z,24.13
2022-11-11T14:50:32.814Z,27.92
2022-11-11T14:52:02.467Z,20.30
2022-11-11T14:53:36.050Z,22.35
2022-11-11T14:55:02.865Z,24.27
2022-11-11T14:56:26.227Z,24.38
2022-11-11T14:58:13.389Z,28.73
2022-11-11T14:59:35.405Z,23.65
2022-11-11T15:01:17.696Z,23.88
2022-11-11T15:03:01.995Z,29.00
2022-11-11T15:04:23.560Z,26.88
2022-11-11T15:06:01.553Z,28.65
2022-11-11T15:07:36.917Z,23.50
2022-11-11T15:09:31.248Z,29.00
2022-11-11T15:11:01.075Z,22.77
2022-11-11T15:12:30.006Z,33.13
2022-11-11T15:14:11.845Z,26.23
2022-11-11T15:15:58.964Z,23.17
2022-11-11T15:17:37.617Z,27.48
2022-11-11T15:19:17.270Z,22.20
2022-11-11T15:21:19.516Z,26.35
2022-11-11T15:22:55.288Z,24.83
2022-11-11T15:24:34.460Z,23.60
2022-11-11T15:26:17.631Z,24.85
2022-11-11T15:27:54.141Z,26.13
2022-11-11T15:29:53.166Z,23.80
2022-11-11T15:31:31.796Z,20.65
2022-11-11T15:33:03.193Z,56.00
2022-11-11T15:34:24.241Z,24.80
2022-11-11T15:36:13.050Z,21.40
2022-11-11T15:37:36.052Z,24.10
2022-11-11T15:38:59.746Z,21.08
2022-11-11T15:40:32.589Z,21.05
2022-11-11T15:41:53.600Z,53.90
2022-11-11T15:43:25.786Z,23.92
2022-11-11T15:44:47.009Z,24.40
2022-11-11T15:46:07.781Z,23.23
2022-11-11T15:47:34.257Z,20.00
2022-11-11T15:48:55.610Z,19.30
2022-11-11T15:50:31.598Z,18.63
2022-11-11T15:51:56.884Z,17.48
2022-11-11T15:53:24.142Z,15.15
2022-11-11T15:54:45.885Z,19.15
2022-11-11T15:56:08.723Z,16.70
2022-11-11T15:57:34.852Z,16.42
2022-11-11T15:58:55.581Z,16.52
2022-11-11T16:00:25.161Z,14.50
2022-11-11T16:01:46.387Z,13.77
2022-11-11T16:03:18.379Z,12.75
2022-11-11T16:06:17.662Z,11.55
2022-11-11T16:07:43.034Z,13.70
2022-11-11T16:09:04.437Z,13.30
2022-11-11T16:11:48.672Z,12.18
2022-11-11T16:13:17.405Z,87.28
2022-11-11T16:14:44.619Z,201.68
2022-11-11T16:16:16.178Z,47.88
2022-11-11T16:17:42.980Z,44.80
2022-11-11T16:19:13.193Z,40.30
2022-11-11T16:20:51.183Z,50.70
2022-11-11T16:22:23.729Z,25.83
2022-11-11T16:23:45.588Z,19.67
2022-11-11T16:25:18.584Z,19.33
2022-11-11T16:26:39.489Z,15.27
2022-11-11T16:28:01.050Z,19.88
2022-11-11T16:29:24.569Z,16.42
2022-11-11T16:30:45.615Z,16.33
2022-11-11T16:32:24.287Z,14.77
2022-11-11T16:33:45.369Z,13.18
2022-11-11T16:35:24.354Z,18.17
2022-11-11T16:37:12.492Z,11.45
2022-11-11T16:38:38.665Z,13.38
2022-11-11T16:40:48.650Z,17.02
2022-11-11T16:42:27.284Z,17.35
2022-11-11T16:43:48.583Z,18.10
2022-11-11T16:45:20.582Z,19.33
2022-11-11T16:46:42.078Z,15.55
2022-11-11T16:48:03.277Z,16.65
2022-11-11T16:49:41.943Z,23.70
2022-11-11T16:51:19.613Z,20.23
2022-11-11T16:52:57.036Z,18.42
2022-11-11T16:54:22.589Z,20.20
2022-11-11T16:55:46.594Z,20.30
2022-11-11T16:57:07.703Z,21.48
2022-11-11T16:58:28.823Z,26.05
2022-11-11T16:59:53.634Z,44.30
2022-11-11T17:01:15.873Z,92.07
2022-11-11T17:02:36.772Z,139.13
2022-11-11T17:03:59.658Z,133.35
2022-11-11T17:06:00.114Z,133.27
2022-11-11T17:07:38.243Z,118.40
2022-11-11T17:08:58.980Z,126.68
2022-11-11T17:10:25.907Z,145.30
2022-11-11T17:11:46.833Z,126.32
2022-11-11T17:13:07.437Z,117.43
2022-11-11T17:14:30.805Z,107.13
2022-11-11T17:15:53.271Z,114.13
2022-11-11T17:17:14.553Z,115.03
2022-11-11T17:18:40.340Z,112.32
2022-11-11T17:20:21.554Z,100.40
2022-11-11T17:21:42.354Z,81.70
2022-11-11T17:23:06.210Z,98.30
2022-11-11T17:24:29.762Z,111.15
2022-11-11T17:26:00.266Z,110.60
2022-11-11T17:27:21.072Z,90.35
2022-11-11T17:28:41.935Z,80.80
2022-11-11T17:30:02.654Z,94.47
2022-11-11T17:31:26.273Z,87.50
2022-11-11T17:32:48.966Z,80.85
2022-11-11T17:34:10.712Z,89.40
2022-11-11T17:36:52.448Z,68.68
2022-11-11T17:38:13.216Z,85.80
2022-11-11T17:39:34.469Z,96.05
2022-11-11T17:40:55.434Z,88.00
2022-11-11T17:42:16.217Z,77.68
2022-11-11T17:43:36.837Z,84.47
2022-11-11T17:44:57.530Z,84.10
2022-11-11T17:46:18.420Z,82.07
2022-11-11T17:47:43.490Z,79.90
2022-11-11T17:49:04.998Z,67.00
2022-11-11T17:50:25.645Z,74.32
2022-11-11T17:51:46.594Z,80.45
2022-11-11T17:53:11.076Z,73.72
2022-11-11T17:54:35.963Z,72.35
2022-11-11T17:56:01.508Z,65.23
2022-11-11T17:57:22.417Z,75.57
2022-11-11T17:58:43.082Z,59.67
2022-11-11T18:00:04.437Z,75.20
2022-11-11T18:01:25.729Z,59.17
2022-11-11T18:02:46.895Z,67.65
2022-11-11T18:04:07.559Z,56.60
2022-11-11T18:05:28.281Z,65.40
2022-11-11T18:06:48.930Z,64.45
2022-11-11T18:08:09.750Z,67.80
2022-11-11T18:09:30.583Z,59.25
2022-11-11T18:10:51.457Z,64.30
2022-11-11T18:12:12.063Z,50.97
2022-11-11T18:13:32.734Z,65.40
2022-11-11T18:14:53.533Z,54.30
2022-11-11T18:16:18.992Z,49.53
2022-11-11T18:17:39.907Z,57.78
2022-11-11T18:19:02.549Z,54.83
2022-11-11T18:20:23.469Z,48.50
2022-11-11T18:21:44.256Z,47.50
2022-11-11T18:23:05.045Z,50.60
2022-11-11T18:24:25.652Z,49.35
2022-11-11T18:25:46.362Z,45.75
2022-11-11T18:27:07.065Z,40.45
2022-11-11T18:28:36.948Z,40.70
2022-11-11T18:29:58.241Z,47.13
2022-11-11T18:31:18.894Z,46.45
2022-11-11T18:32:39.732Z,51.90
2022-11-11T18:34:00.883Z,44.10
2022-11-11T18:35:21.822Z,50.45
2022-11-11T18:36:42.492Z,46.00
2022-11-11T18:38:03.195Z,39.47
2022-11-11T18:39:24.078Z,39.20
2022-11-11T18:40:45.053Z,40.95
2022-11-11T18:42:05.927Z,40.78
2022-11-11T18:43:27.029Z,44.58
2022-11-11T18:46:11.737Z,44.53
2022-11-11T18:47:32.507Z,44.70
2022-11-11T18:48:58.668Z,39.88
2022-11-11T18:50:19.390Z,41.22
2022-11-11T18:51:40.763Z,42.22
2022-11-11T18:53:01.410Z,42.42
2022-11-11T18:54:25.098Z,41.27
2022-11-11T18:55:49.958Z,49.33
2022-11-11T18:57:10.727Z,41.93
2022-11-11T18:58:33.461Z,43.92
2022-11-11T18:59:54.228Z,37.72
2022-11-11T19:01:24.025Z,39.85
2022-11-11T19:02:44.772Z,32.35
2022-11-11T19:04:08.081Z,36.13
2022-11-11T19:05:28.889Z,41.65
2022-11-11T19:06:49.707Z,33.25
2022-11-11T19:08:10.376Z,39.13
2022-11-11T19:09:31.036Z,35.50
2022-11-11T19:10:51.602Z,35.28
2022-11-11T19:12:12.410Z,47.33
2022-11-11T19:13:34.965Z,32.70
2022-11-11T19:14:56.017Z,44.65
2022-11-11T19:16:19.616Z,37.85